sensor_id;sensor_type;location;lat;lon;timestamp;P1;durP1;ratioP1;P2;durP2;ratioP2
22995;SDS011;11664;49.774;8.650;2024-02-04T00:01:27;10.65;;;10.05;;
22995;SDS011;11664;49.774;8.650;2024-02-04T00:03:58;10.27;;;9.68;;
22995;SDS011;11664;49.774;8.650;2024-02-04T00:06:24;9.10;;;8.60;;
22995;SDS011;11664;49.774;8.650;2024-02-04T00:11:47;7.55;;;7.15;;
22995;SDS011;11664;49.774;8.650;2024-02-04T00:14:22;8.15;;;7.65;;
22995;SDS011;11664;49.774;8.650;2024-02-04T00:16:50;8.25;;;7.85;;
22995;SDS011;11664;49.774;8.650;2024-02-04T00:19:22;6.32;;;5.93;;
22995;SDS011;11664;49.774;8.650;2024-02-04T00:21:48;8.20;;;7.80;;
22995;SDS011;11664;49.774;8.650;2024-02-04T00:24:19;7.68;;;7.28;;
22995;SDS011;11664;49.774;8.650;2024-02-04T00:26:48;8.38;;;7.93;;
22995;SDS011;11664;49.774;8.650;2024-02-04T00:29:15;8.35;;;7.85;;
22995;SDS011;11664;49.774;8.650;2024-02-04T00:32:02;7.03;;;6.63;;
22995;SDS011;11664;49.774;8.650;2024-02-04T00:34:27;7.65;;;7.15;;
22995;SDS011;11664;49.774;8.650;2024-02-04T00:36:59;5.63;;;5.32;;
22995;SDS011;11664;49.774;8.650;2024-02-04T00:39:27;6.22;;;5.68;;
22995;SDS011;11664;49.774;8.650;2024-02-04T00:41:59;6.85;;;6.45;;
22995;SDS011;11664;49.774;8.650;2024-02-04T00:44:28;6.50;;;6.20;;
22995;SDS011;11664;49.774;8.650;2024-02-04T00:46:57;7.05;;;6.65;;
22995;SDS011;11664;49.774;8.650;2024-02-04T00:49:28;6.47;;;6.03;;
22995;SDS011;11664;49.774;8.650;2024-02-04T00:51:57;4.30;;;4.10;;
22995;SDS011;11664;49.774;8.650;2024-02-04T00:54:31;6.80;;;6.50;;
22995;SDS011;11664;49.774;8.650;2024-02-04T00:56:58;7.72;;;7.32;;
22995;SDS011;11664;49.774;8.650;2024-02-04T00:59:27;4.35;;;4.13;;
22995;SDS011;11664;49.774;8.650;2024-02-04T01:01:53;4.93;;;4.63;;
22995;SDS011;11664;49.774;8.650;2024-02-04T01:04:26;6.72;;;6.35;;
22995;SDS011;11664;49.774;8.650;2024-02-04T01:06:58;6.57;;;6.28;;
22995;SDS011;11664;49.774;8.650;2024-02-04T01:09:30;7.00;;;6.70;;
22995;SDS011;11664;49.774;8.650;2024-02-04T01:11:58;7.05;;;6.75;;
22995;SDS011;11664;49.774;8.650;2024-02-04T01:14:27;8.27;;;7.82;;
22995;SDS011;11664;49.774;8.650;2024-02-04T01:17:05;7.80;;;7.40;;
22995;SDS011;11664;49.774;8.650;2024-02-04T01:19:36;8.43;;;7.97;;
22995;SDS011;11664;49.774;8.650;2024-02-04T01:22:02;10.13;;;9.63;;
22995;SDS011;11664;49.774;8.650;2024-02-04T01:24:31;7.75;;;7.35;;
22995;SDS011;11664;49.774;8.650;2024-02-04T01:27:01;7.18;;;6.78;;
22995;SDS011;11664;49.774;8.650;2024-02-04T01:29:32;7.07;;;6.78;;
22995;SDS011;11664;49.774;8.650;2024-02-04T01:31:58;6.43;;;6.13;;
22995;SDS011;11664;49.774;8.650;2024-02-04T01:34:29;5.28;;;5.07;;
22995;SDS011;11664;49.774;8.650;2024-02-04T01:36:56;9.32;;;8.85;;
22995;SDS011;11664;49.774;8.650;2024-02-04T01:39:28;6.55;;;6.07;;
22995;SDS011;11664;49.774;8.650;2024-02-04T01:41:59;5.07;;;4.78;;
22995;SDS011;11664;49.774;8.650;2024-02-04T01:44:29;5.03;;;4.80;;
22995;SDS011;11664;49.774;8.650;2024-02-04T01:46:54;4.63;;;4.43;;
22995;SDS011;11664;49.774;8.650;2024-02-04T01:52:43;6.43;;;6.03;;
22995;SDS011;11664;49.774;8.650;2024-02-04T01:55:18;9.35;;;8.80;;
22995;SDS011;11664;49.774;8.650;2024-02-04T01:57:55;5.13;;;4.93;;
22995;SDS011;11664;49.774;8.650;2024-02-04T02:00:27;4.78;;;4.55;;
22995;SDS011;11664;49.774;8.650;2024-02-04T02:02:54;5.55;;;5.25;;
22995;SDS011;11664;49.774;8.650;2024-02-04T02:05:21;10.32;;;9.77;;
22995;SDS011;11664;49.774;8.650;2024-02-04T02:07:56;12.07;;;11.38;;
22995;SDS011;11664;49.774;8.650;2024-02-04T02:10:27;5.60;;;5.30;;
22995;SDS011;11664;49.774;8.650;2024-02-04T02:13:00;7.05;;;6.70;;
22995;SDS011;11664;49.774;8.650;2024-02-04T02:15:40;4.35;;;4.15;;
22995;SDS011;11664;49.774;8.650;2024-02-04T02:18:13;6.78;;;6.28;;
22995;SDS011;11664;49.774;8.650;2024-02-04T02:24:10;10.35;;;9.85;;
22995;SDS011;11664;49.774;8.650;2024-02-04T02:26:57;14.30;;;13.55;;
22995;SDS011;11664;49.774;8.650;2024-02-04T02:29:33;27.38;;;25.90;;
22995;SDS011;11664;49.774;8.650;2024-02-04T02:34:44;11.93;;;11.27;;
22995;SDS011;11664;49.774;8.650;2024-02-04T02:40:14;14.77;;;13.98;;
22995;SDS011;11664;49.774;8.650;2024-02-04T02:42:52;26.45;;;25.08;;
22995;SDS011;11664;49.774;8.650;2024-02-04T02:45:26;14.57;;;13.77;;
22995;SDS011;11664;49.774;8.650;2024-02-04T02:50:21;12.68;;;12.05;;
22995;SDS011;11664;49.774;8.650;2024-02-04T02:52:47;13.25;;;12.55;;
22995;SDS011;11664;49.774;8.650;2024-02-04T02:55:18;8.27;;;7.78;;
22995;SDS011;11664;49.774;8.650;2024-02-04T02:57:44;9.40;;;8.90;;
22995;SDS011;11664;49.774;8.650;2024-02-04T03:00:16;10.05;;;9.52;;
22995;SDS011;11664;49.774;8.650;2024-02-04T03:02:47;11.00;;;10.35;;
22995;SDS011;11664;49.774;8.650;2024-02-04T03:05:15;12.68;;;12.05;;
22995;SDS011;11664;49.774;8.650;2024-02-04T03:07:44;9.25;;;8.73;;
22995;SDS011;11664;49.774;8.650;2024-02-04T03:10:10;8.88;;;8.40;;
22995;SDS011;11664;49.774;8.650;2024-02-04T03:12:36;9.73;;;9.23;;
22995;SDS011;11664;49.774;8.650;2024-02-04T03:15:01;11.05;;;10.50;;
22995;SDS011;11664;49.774;8.650;2024-02-04T03:18:00;19.80;;;18.75;;
22995;SDS011;11664;49.774;8.650;2024-02-04T03:20:29;12.68;;;11.90;;
22995;SDS011;11664;49.774;8.650;2024-02-04T03:23:00;13.50;;;12.80;;
22995;SDS011;11664;49.774;8.650;2024-02-04T03:25:41;10.27;;;9.73;;
22995;SDS011;11664;49.774;8.650;2024-02-04T03:28:06;10.40;;;9.88;;
22995;SDS011;11664;49.774;8.650;2024-02-04T03:30:38;7.47;;;7.05;;
22995;SDS011;11664;49.774;8.650;2024-02-04T03:33:04;6.88;;;6.47;;
22995;SDS011;11664;49.774;8.650;2024-02-04T03:35:29;7.82;;;7.38;;
22995;SDS011;11664;49.774;8.650;2024-02-04T03:37:55;5.95;;;5.63;;
22995;SDS011;11664;49.774;8.650;2024-02-04T03:40:23;6.15;;;5.75;;
22995;SDS011;11664;49.774;8.650;2024-02-04T03:42:52;5.25;;;4.95;;
22995;SDS011;11664;49.774;8.650;2024-02-04T03:45:18;7.05;;;6.68;;
22995;SDS011;11664;49.774;8.650;2024-02-04T03:47:49;8.03;;;7.63;;
22995;SDS011;11664;49.774;8.650;2024-02-04T03:50:21;11.80;;;11.20;;
22995;SDS011;11664;49.774;8.650;2024-02-04T03:52:47;16.02;;;15.15;;
22995;SDS011;11664;49.774;8.650;2024-02-04T03:55:27;14.00;;;13.30;;
22995;SDS011;11664;49.774;8.650;2024-02-04T03:58:16;12.48;;;11.85;;
22995;SDS011;11664;49.774;8.650;2024-02-04T04:00:48;8.52;;;8.10;;
22995;SDS011;11664;49.774;8.650;2024-02-04T04:03:26;5.53;;;5.22;;
22995;SDS011;11664;49.774;8.650;2024-02-04T04:06:01;6.30;;;6.00;;
22995;SDS011;11664;49.774;8.650;2024-02-04T04:08:26;7.88;;;7.47;;
22995;SDS011;11664;49.774;8.650;2024-02-04T04:10:58;8.10;;;7.57;;
22995;SDS011;11664;49.774;8.650;2024-02-04T04:13:23;6.35;;;5.95;;
22995;SDS011;11664;49.774;8.650;2024-02-04T04:16:13;7.97;;;7.43;;
22995;SDS011;11664;49.774;8.650;2024-02-04T04:18:41;9.90;;;9.40;;
22995;SDS011;11664;49.774;8.650;2024-02-04T04:21:13;8.57;;;8.18;;
22995;SDS011;11664;49.774;8.650;2024-02-04T04:23:48;7.38;;;6.97;;
22995;SDS011;11664;49.774;8.650;2024-02-04T04:26:25;7.53;;;7.03;;
22995;SDS011;11664;49.774;8.650;2024-02-04T04:28:51;5.38;;;5.05;;
22995;SDS011;11664;49.774;8.650;2024-02-04T04:31:23;6.35;;;6.05;;
22995;SDS011;11664;49.774;8.650;2024-02-04T04:33:48;4.10;;;3.90;;
22995;SDS011;11664;49.774;8.650;2024-02-04T04:39:07;5.85;;;5.45;;
22995;SDS011;11664;49.774;8.650;2024-02-04T04:41:33;4.43;;;4.22;;
22995;SDS011;11664;49.774;8.650;2024-02-04T04:43:58;7.05;;;6.70;;
22995;SDS011;11664;49.774;8.650;2024-02-04T04:46:24;4.65;;;4.35;;
22995;SDS011;11664;49.774;8.650;2024-02-04T04:48:50;5.35;;;5.05;;
22995;SDS011;11664;49.774;8.650;2024-02-04T04:51:20;6.53;;;6.13;;
22995;SDS011;11664;49.774;8.650;2024-02-04T04:53:56;6.35;;;6.05;;
22995;SDS011;11664;49.774;8.650;2024-02-04T04:56:23;14.88;;;14.05;;
22995;SDS011;11664;49.774;8.650;2024-02-04T04:58:55;9.77;;;9.23;;
22995;SDS011;11664;49.774;8.650;2024-02-04T05:01:23;16.02;;;15.20;;
22995;SDS011;11664;49.774;8.650;2024-02-04T05:03:52;8.63;;;8.23;;
22995;SDS011;11664;49.774;8.650;2024-02-04T05:06:17;7.95;;;7.55;;
22995;SDS011;11664;49.774;8.650;2024-02-04T05:08:43;9.32;;;8.82;;
22995;SDS011;11664;49.774;8.650;2024-02-04T05:11:08;16.92;;;16.05;;
22995;SDS011;11664;49.774;8.650;2024-02-04T05:13:38;28.48;;;26.95;;
22995;SDS011;11664;49.774;8.650;2024-02-04T05:16:05;6.00;;;5.60;;
22995;SDS011;11664;49.774;8.650;2024-02-04T05:18:30;5.22;;;4.93;;
22995;SDS011;11664;49.774;8.650;2024-02-04T05:21:02;5.10;;;4.82;;
22995;SDS011;11664;49.774;8.650;2024-02-04T05:23:32;4.22;;;4.03;;
22995;SDS011;11664;49.774;8.650;2024-02-04T05:28:59;6.97;;;6.47;;
22995;SDS011;11664;49.774;8.650;2024-02-04T05:31:31;6.93;;;6.57;;
22995;SDS011;11664;49.774;8.650;2024-02-04T05:33:56;7.65;;;7.25;;
22995;SDS011;11664;49.774;8.650;2024-02-04T05:36:22;6.70;;;6.40;;
22995;SDS011;11664;49.774;8.650;2024-02-04T05:41:45;5.03;;;4.82;;
22995;SDS011;11664;49.774;8.650;2024-02-04T05:44:11;5.18;;;4.97;;
22995;SDS011;11664;49.774;8.650;2024-02-04T05:49:24;4.78;;;4.53;;
22995;SDS011;11664;49.774;8.650;2024-02-04T05:51:56;4.35;;;4.15;;
22995;SDS011;11664;49.774;8.650;2024-02-04T05:54:27;5.10;;;4.80;;
22995;SDS011;11664;49.774;8.650;2024-02-04T05:56:56;4.95;;;4.75;;
22995;SDS011;11664;49.774;8.650;2024-02-04T05:59:24;7.10;;;6.78;;
22995;SDS011;11664;49.774;8.650;2024-02-04T06:01:53;5.18;;;4.97;;
22995;SDS011;11664;49.774;8.650;2024-02-04T06:04:18;8.32;;;7.93;;
22995;SDS011;11664;49.774;8.650;2024-02-04T06:06:50;10.05;;;9.55;;
22995;SDS011;11664;49.774;8.650;2024-02-04T06:09:28;4.57;;;4.28;;
22995;SDS011;11664;49.774;8.650;2024-02-04T06:11:59;8.68;;;8.18;;
22995;SDS011;11664;49.774;8.650;2024-02-04T06:14:28;9.57;;;8.95;;
22995;SDS011;11664;49.774;8.650;2024-02-04T06:17:00;7.88;;;7.45;;
22995;SDS011;11664;49.774;8.650;2024-02-04T06:19:25;11.38;;;10.77;;
22995;SDS011;11664;49.774;8.650;2024-02-04T06:22:09;7.05;;;6.75;;
22995;SDS011;11664;49.774;8.650;2024-02-04T06:24:50;5.93;;;5.63;;
22995;SDS011;11664;49.774;8.650;2024-02-04T06:27:21;4.72;;;4.53;;
22995;SDS011;11664;49.774;8.650;2024-02-04T06:29:47;3.97;;;3.53;;
22995;SDS011;11664;49.774;8.650;2024-02-04T06:32:12;5.90;;;5.40;;
22995;SDS011;11664;49.774;8.650;2024-02-04T06:34:38;5.05;;;4.85;;
22995;SDS011;11664;49.774;8.650;2024-02-04T06:39:57;5.70;;;5.40;;
22995;SDS011;11664;49.774;8.650;2024-02-04T06:42:22;4.03;;;3.83;;
22995;SDS011;11664;49.774;8.650;2024-02-04T06:45:00;6.95;;;6.65;;
22995;SDS011;11664;49.774;8.650;2024-02-04T06:47:32;6.13;;;5.82;;
22995;SDS011;11664;49.774;8.650;2024-02-04T06:50:01;5.30;;;5.10;;
22995;SDS011;11664;49.774;8.650;2024-02-04T06:52:30;3.83;;;3.63;;
22995;SDS011;11664;49.774;8.650;2024-02-04T06:55:02;6.50;;;6.22;;
22995;SDS011;11664;49.774;8.650;2024-02-04T06:57:28;4.13;;;3.65;;
22995;SDS011;11664;49.774;8.650;2024-02-04T06:59:53;8.70;;;8.27;;
22995;SDS011;11664;49.774;8.650;2024-02-04T07:02:19;7.47;;;7.13;;
22995;SDS011;11664;49.774;8.650;2024-02-04T07:05:00;8.02;;;7.53;;
22995;SDS011;11664;49.774;8.650;2024-02-04T07:07:29;10.48;;;9.93;;
22995;SDS011;11664;49.774;8.650;2024-02-04T07:09:54;18.98;;;17.92;;
22995;SDS011;11664;49.774;8.650;2024-02-04T07:12:27;6.28;;;5.88;;
22995;SDS011;11664;49.774;8.650;2024-02-04T07:14:55;10.50;;;9.98;;
22995;SDS011;11664;49.774;8.650;2024-02-04T07:17:27;6.25;;;5.95;;
22995;SDS011;11664;49.774;8.650;2024-02-04T07:19:52;5.22;;;5.03;;
22995;SDS011;11664;49.774;8.650;2024-02-04T07:22:18;4.57;;;4.38;;
22995;SDS011;11664;49.774;8.650;2024-02-04T07:24:50;5.55;;;5.25;;
22995;SDS011;11664;49.774;8.650;2024-02-04T07:27:21;5.15;;;4.95;;
22995;SDS011;11664;49.774;8.650;2024-02-04T07:29:53;5.20;;;4.90;;
22995;SDS011;11664;49.774;8.650;2024-02-04T07:32:28;4.35;;;4.15;;
22995;SDS011;11664;49.774;8.650;2024-02-04T07:34:57;5.43;;;5.00;;
22995;SDS011;11664;49.774;8.650;2024-02-04T07:37:26;3.95;;;3.75;;
22995;SDS011;11664;49.774;8.650;2024-02-04T07:39:54;4.82;;;4.63;;
22995;SDS011;11664;49.774;8.650;2024-02-04T07:42:26;4.20;;;4.00;;
22995;SDS011;11664;49.774;8.650;2024-02-04T07:47:26;6.18;;;5.88;;
22995;SDS011;11664;49.774;8.650;2024-02-04T07:49:52;6.57;;;6.28;;
22995;SDS011;11664;49.774;8.650;2024-02-04T07:52:21;6.25;;;5.95;;
22995;SDS011;11664;49.774;8.650;2024-02-04T07:54:59;7.07;;;6.75;;
22995;SDS011;11664;49.774;8.650;2024-02-04T07:57:30;12.40;;;11.80;;
22995;SDS011;11664;49.774;8.650;2024-02-04T08:02:28;6.68;;;6.38;;
22995;SDS011;11664;49.774;8.650;2024-02-04T08:04:53;6.20;;;5.55;;
22995;SDS011;11664;49.774;8.650;2024-02-04T08:07:22;7.45;;;6.28;;
22995;SDS011;11664;49.774;8.650;2024-02-04T08:09:51;6.32;;;5.78;;
22995;SDS011;11664;49.774;8.650;2024-02-04T08:12:17;14.98;;;8.25;;
22995;SDS011;11664;49.774;8.650;2024-02-04T08:14:57;10.32;;;9.15;;
22995;SDS011;11664;49.774;8.650;2024-02-04T08:17:23;25.58;;;10.55;;
22995;SDS011;11664;49.774;8.650;2024-02-04T08:20:02;11.70;;;10.55;;
22995;SDS011;11664;49.774;8.650;2024-02-04T08:22:29;13.35;;;12.18;;
22995;SDS011;11664;49.774;8.650;2024-02-04T08:25:01;21.17;;;20.00;;
22995;SDS011;11664;49.774;8.650;2024-02-04T08:29:53;16.45;;;15.38;;
22995;SDS011;11664;49.774;8.650;2024-02-04T08:32:37;11.20;;;10.20;;
22995;SDS011;11664;49.774;8.650;2024-02-04T08:35:09;18.27;;;9.05;;
22995;SDS011;11664;49.774;8.650;2024-02-04T08:37:35;10.20;;;7.55;;
22995;SDS011;11664;49.774;8.650;2024-02-04T08:40:14;9.52;;;7.65;;
22995;SDS011;11664;49.774;8.650;2024-02-04T08:42:43;13.38;;;9.98;;
22995;SDS011;11664;49.774;8.650;2024-02-04T08:45:15;12.90;;;11.90;;
22995;SDS011;11664;49.774;8.650;2024-02-04T08:47:55;11.38;;;10.68;;
22995;SDS011;11664;49.774;8.650;2024-02-04T08:50:26;18.48;;;17.02;;
22995;SDS011;11664;49.774;8.650;2024-02-04T08:52:52;17.95;;;16.40;;
22995;SDS011;11664;49.774;8.650;2024-02-04T08:55:24;17.65;;;13.88;;
22995;SDS011;11664;49.774;8.650;2024-02-04T08:57:49;17.20;;;16.15;;
22995;SDS011;11664;49.774;8.650;2024-02-04T09:00:15;29.73;;;27.85;;
22995;SDS011;11664;49.774;8.650;2024-02-04T09:02:41;14.48;;;13.63;;
22995;SDS011;11664;49.774;8.650;2024-02-04T09:05:07;14.00;;;13.32;;
22995;SDS011;11664;49.774;8.650;2024-02-04T09:07:33;7.47;;;7.07;;
22995;SDS011;11664;49.774;8.650;2024-02-04T09:09:59;7.80;;;7.40;;
22995;SDS011;11664;49.774;8.650;2024-02-04T09:12:25;10.35;;;9.55;;
22995;SDS011;11664;49.774;8.650;2024-02-04T09:14:50;14.35;;;13.55;;
22995;SDS011;11664;49.774;8.650;2024-02-04T09:17:16;9.93;;;9.38;;
22995;SDS011;11664;49.774;8.650;2024-02-04T09:19:41;7.15;;;6.85;;
22995;SDS011;11664;49.774;8.650;2024-02-04T09:22:07;5.80;;;5.53;;
22995;SDS011;11664;49.774;8.650;2024-02-04T09:24:32;4.65;;;4.45;;
22995;SDS011;11664;49.774;8.650;2024-02-04T09:26:58;5.65;;;5.43;;
22995;SDS011;11664;49.774;8.650;2024-02-04T09:29:24;6.75;;;6.45;;
22995;SDS011;11664;49.774;8.650;2024-02-04T09:31:49;8.10;;;7.72;;
22995;SDS011;11664;49.774;8.650;2024-02-04T09:34:16;14.77;;;14.05;;
22995;SDS011;11664;49.774;8.650;2024-02-04T09:36:43;18.30;;;17.38;;
22995;SDS011;11664;49.774;8.650;2024-02-04T09:39:08;13.32;;;12.70;;
22995;SDS011;11664;49.774;8.650;2024-02-04T09:41:34;13.20;;;12.55;;
22995;SDS011;11664;49.774;8.650;2024-02-04T09:43:59;8.40;;;8.00;;
22995;SDS011;11664;49.774;8.650;2024-02-04T09:46:28;13.07;;;12.45;;
22995;SDS011;11664;49.774;8.650;2024-02-04T09:48:54;10.48;;;9.98;;
22995;SDS011;11664;49.774;8.650;2024-02-04T09:51:20;13.68;;;13.02;;
22995;SDS011;11664;49.774;8.650;2024-02-04T09:53:46;7.47;;;7.05;;
22995;SDS011;11664;49.774;8.650;2024-02-04T09:56:16;7.03;;;6.38;;
22995;SDS011;11664;49.774;8.650;2024-02-04T09:58:43;9.15;;;7.90;;
22995;SDS011;11664;49.774;8.650;2024-02-04T10:01:09;9.73;;;8.95;;
22995;SDS011;11664;49.774;8.650;2024-02-04T10:03:36;8.60;;;7.90;;
22995;SDS011;11664;49.774;8.650;2024-02-04T10:06:02;7.25;;;6.75;;
22995;SDS011;11664;49.774;8.650;2024-02-04T10:08:28;6.85;;;6.35;;
22995;SDS011;11664;49.774;8.650;2024-02-04T10:10:53;7.90;;;7.32;;
22995;SDS011;11664;49.774;8.650;2024-02-04T10:13:19;6.20;;;5.70;;
22995;SDS011;11664;49.774;8.650;2024-02-04T10:15:46;6.03;;;5.65;;
22995;SDS011;11664;49.774;8.650;2024-02-04T10:18:12;6.88;;;6.38;;
22995;SDS011;11664;49.774;8.650;2024-02-04T10:20:38;8.60;;;8.20;;
22995;SDS011;11664;49.774;8.650;2024-02-04T10:23:03;15.55;;;14.70;;
22995;SDS011;11664;49.774;8.650;2024-02-04T10:25:29;16.73;;;15.88;;
22995;SDS011;11664;49.774;8.650;2024-02-04T10:27:55;7.05;;;6.75;;
22995;SDS011;11664;49.774;8.650;2024-02-04T10:30:22;7.78;;;7.38;;
22995;SDS011;11664;49.774;8.650;2024-02-04T10:32:50;11.82;;;11.13;;
22995;SDS011;11664;49.774;8.650;2024-02-04T10:35:16;13.13;;;12.45;;
22995;SDS011;11664;49.774;8.650;2024-02-04T10:37:44;12.85;;;12.23;;
22995;SDS011;11664;49.774;8.650;2024-02-04T10:40:10;16.67;;;15.73;;
22995;SDS011;11664;49.774;8.650;2024-02-04T10:42:36;14.30;;;13.50;;
22995;SDS011;11664;49.774;8.650;2024-02-04T10:45:03;12.77;;;12.15;;
22995;SDS011;11664;49.774;8.650;2024-02-04T10:47:32;14.32;;;13.43;;
22995;SDS011;11664;49.774;8.650;2024-02-04T10:50:04;6.97;;;6.57;;
22995;SDS011;11664;49.774;8.650;2024-02-04T10:52:34;6.90;;;6.60;;
22995;SDS011;11664;49.774;8.650;2024-02-04T10:55:03;7.63;;;7.20;;
22995;SDS011;11664;49.774;8.650;2024-02-04T10:57:34;6.75;;;6.35;;
22995;SDS011;11664;49.774;8.650;2024-02-04T11:00:01;10.00;;;7.10;;
22995;SDS011;11664;49.774;8.650;2024-02-04T11:04:59;7.65;;;7.18;;
22995;SDS011;11664;49.774;8.650;2024-02-04T11:07:25;9.40;;;8.90;;
22995;SDS011;11664;49.774;8.650;2024-02-04T11:09:56;10.48;;;9.90;;
22995;SDS011;11664;49.774;8.650;2024-02-04T11:12:22;5.57;;;5.25;;
22995;SDS011;11664;49.774;8.650;2024-02-04T11:14:50;3.95;;;3.75;;
22995;SDS011;11664;49.774;8.650;2024-02-04T11:17:37;5.55;;;5.25;;
22995;SDS011;11664;49.774;8.650;2024-02-04T11:25:52;8.23;;;7.82;;
22995;SDS011;11664;49.774;8.650;2024-02-04T11:28:20;12.05;;;11.45;;
22995;SDS011;11664;49.774;8.650;2024-02-04T11:30:47;6.05;;;5.22;;
22995;SDS011;11664;49.774;8.650;2024-02-04T11:33:17;4.60;;;4.40;;
22995;SDS011;11664;49.774;8.650;2024-02-04T11:35:43;5.72;;;5.30;;
22995;SDS011;11664;49.774;8.650;2024-02-04T11:38:09;4.72;;;4.45;;
22995;SDS011;11664;49.774;8.650;2024-02-04T11:40:36;5.57;;;5.28;;
22995;SDS011;11664;49.774;8.650;2024-02-04T11:43:06;3.85;;;3.65;;
22995;SDS011;11664;49.774;8.650;2024-02-04T11:45:41;6.07;;;4.68;;
22995;SDS011;11664;49.774;8.650;2024-02-04T11:48:09;5.18;;;4.80;;
22995;SDS011;11664;49.774;8.650;2024-02-04T11:50:36;4.50;;;4.20;;
22995;SDS011;11664;49.774;8.650;2024-02-04T11:53:04;3.83;;;3.50;;
22995;SDS011;11664;49.774;8.650;2024-02-04T11:55:34;5.45;;;5.00;;
22995;SDS011;11664;49.774;8.650;2024-02-04T11:58:01;4.10;;;3.85;;
22995;SDS011;11664;49.774;8.650;2024-02-04T12:00:28;4.07;;;3.88;;
22995;SDS011;11664;49.774;8.650;2024-02-04T12:03:03;3.50;;;3.30;;
22995;SDS011;11664;49.774;8.650;2024-02-04T12:05:33;3.60;;;3.47;;
22995;SDS011;11664;49.774;8.650;2024-02-04T12:08:01;3.85;;;3.65;;
22995;SDS011;11664;49.774;8.650;2024-02-04T12:10:28;4.13;;;3.72;;
22995;SDS011;11664;49.774;8.650;2024-02-04T12:12:55;3.88;;;3.67;;
22995;SDS011;11664;49.774;8.650;2024-02-04T12:15:21;4.15;;;3.92;;
22995;SDS011;11664;49.774;8.650;2024-02-04T12:17:47;4.85;;;4.65;;
22995;SDS011;11664;49.774;8.650;2024-02-04T12:20:13;5.35;;;5.10;;
22995;SDS011;11664;49.774;8.650;2024-02-04T12:22:38;5.35;;;5.15;;
22995;SDS011;11664;49.774;8.650;2024-02-04T12:25:05;4.88;;;4.68;;
22995;SDS011;11664;49.774;8.650;2024-02-04T12:27:30;5.05;;;4.82;;
22995;SDS011;11664;49.774;8.650;2024-02-04T12:29:56;4.22;;;4.03;;
22995;SDS011;11664;49.774;8.650;2024-02-04T12:32:22;4.25;;;3.95;;
22995;SDS011;11664;49.774;8.650;2024-02-04T12:34:48;5.10;;;4.90;;
22995;SDS011;11664;49.774;8.650;2024-02-04T12:37:16;3.80;;;3.60;;
22995;SDS011;11664;49.774;8.650;2024-02-04T12:39:42;5.05;;;4.75;;
22995;SDS011;11664;49.774;8.650;2024-02-04T12:42:08;5.75;;;4.95;;
22995;SDS011;11664;49.774;8.650;2024-02-04T12:44:34;6.95;;;5.47;;
22995;SDS011;11664;49.774;8.650;2024-02-04T12:46:59;4.07;;;3.78;;
22995;SDS011;11664;49.774;8.650;2024-02-04T12:49:25;5.05;;;4.75;;
22995;SDS011;11664;49.774;8.650;2024-02-04T12:51:51;4.63;;;4.43;;
22995;SDS011;11664;49.774;8.650;2024-02-04T12:54:21;4.22;;;4.03;;
22995;SDS011;11664;49.774;8.650;2024-02-04T12:56:50;5.10;;;4.70;;
22995;SDS011;11664;49.774;8.650;2024-02-04T12:59:30;4.82;;;4.63;;
22995;SDS011;11664;49.774;8.650;2024-02-04T13:02:00;4.30;;;4.10;;
22995;SDS011;11664;49.774;8.650;2024-02-04T13:04:32;4.35;;;4.03;;
22995;SDS011;11664;49.774;8.650;2024-02-04T13:06:59;4.70;;;4.50;;
22995;SDS011;11664;49.774;8.650;2024-02-04T13:09:24;14.38;;;13.50;;
22995;SDS011;11664;49.774;8.650;2024-02-04T13:11:50;4.43;;;4.22;;
22995;SDS011;11664;49.774;8.650;2024-02-04T13:14:15;4.72;;;4.43;;
22995;SDS011;11664;49.774;8.650;2024-02-04T13:16:41;4.53;;;4.22;;
22995;SDS011;11664;49.774;8.650;2024-02-04T13:19:07;5.00;;;4.78;;
22995;SDS011;11664;49.774;8.650;2024-02-04T13:21:32;5.20;;;4.90;;
22995;SDS011;11664;49.774;8.650;2024-02-04T13:23:58;5.00;;;4.70;;
22995;SDS011;11664;49.774;8.650;2024-02-04T13:26:23;4.93;;;4.63;;
22995;SDS011;11664;49.774;8.650;2024-02-04T13:28:49;4.38;;;4.07;;
22995;SDS011;11664;49.774;8.650;2024-02-04T13:31:15;4.90;;;4.50;;
22995;SDS011;11664;49.774;8.650;2024-02-04T13:33:40;8.93;;;5.53;;
22995;SDS011;11664;49.774;8.650;2024-02-04T13:36:09;6.20;;;5.68;;
22995;SDS011;11664;49.774;8.650;2024-02-04T13:38:36;4.35;;;4.05;;
22995;SDS011;11664;49.774;8.650;2024-02-04T13:41:02;5.10;;;4.78;;
22995;SDS011;11664;49.774;8.650;2024-02-04T13:43:31;5.05;;;4.55;;
22995;SDS011;11664;49.774;8.650;2024-02-04T13:45:56;9.35;;;6.55;;
22995;SDS011;11664;49.774;8.650;2024-02-04T13:48:22;8.70;;;5.47;;
22995;SDS011;11664;49.774;8.650;2024-02-04T13:50:49;6.07;;;5.57;;
22995;SDS011;11664;49.774;8.650;2024-02-04T13:53:15;6.43;;;6.03;;
22995;SDS011;11664;49.774;8.650;2024-02-04T13:55:41;5.93;;;5.55;;
22995;SDS011;11664;49.774;8.650;2024-02-04T13:58:06;5.30;;;4.72;;
22995;SDS011;11664;49.774;8.650;2024-02-04T14:00:32;4.05;;;3.75;;
22995;SDS011;11664;49.774;8.650;2024-02-04T14:02:58;4.68;;;4.28;;
22995;SDS011;11664;49.774;8.650;2024-02-04T14:05:23;5.88;;;5.47;;
22995;SDS011;11664;49.774;8.650;2024-02-04T14:07:50;5.43;;;5.03;;
22995;SDS011;11664;49.774;8.650;2024-02-04T14:10:16;6.75;;;6.35;;
22995;SDS011;11664;49.774;8.650;2024-02-04T14:12:41;6.07;;;5.78;;
22995;SDS011;11664;49.774;8.650;2024-02-04T14:15:10;6.05;;;5.65;;
22995;SDS011;11664;49.774;8.650;2024-02-04T14:17:36;4.70;;;4.30;;
22995;SDS011;11664;49.774;8.650;2024-02-04T14:20:01;4.45;;;4.10;;
22995;SDS011;11664;49.774;8.650;2024-02-04T14:22:29;4.63;;;4.43;;
22995;SDS011;11664;49.774;8.650;2024-02-04T14:24:55;4.07;;;3.88;;
22995;SDS011;11664;49.774;8.650;2024-02-04T14:27:20;4.63;;;4.32;;
22995;SDS011;11664;49.774;8.650;2024-02-04T14:29:46;4.95;;;4.60;;
22995;SDS011;11664;49.774;8.650;2024-02-04T14:32:11;4.93;;;4.53;;
22995;SDS011;11664;49.774;8.650;2024-02-04T14:34:37;5.40;;;5.10;;
22995;SDS011;11664;49.774;8.650;2024-02-04T14:37:02;6.82;;;6.32;;
22995;SDS011;11664;49.774;8.650;2024-02-04T14:39:28;5.85;;;5.47;;
22995;SDS011;11664;49.774;8.650;2024-02-04T14:41:56;5.15;;;4.85;;
22995;SDS011;11664;49.774;8.650;2024-02-04T14:44:22;7.18;;;6.68;;
22995;SDS011;11664;49.774;8.650;2024-02-04T14:46:48;7.43;;;7.03;;
22995;SDS011;11664;49.774;8.650;2024-02-04T14:49:14;8.60;;;8.07;;
22995;SDS011;11664;49.774;8.650;2024-02-04T14:51:40;5.32;;;4.95;;
22995;SDS011;11664;49.774;8.650;2024-02-04T14:54:06;8.43;;;7.72;;
22995;SDS011;11664;49.774;8.650;2024-02-04T14:56:38;5.90;;;5.60;;
22995;SDS011;11664;49.774;8.650;2024-02-04T14:59:05;8.65;;;8.18;;
22995;SDS011;11664;49.774;8.650;2024-02-04T15:01:31;4.63;;;4.32;;
22995;SDS011;11664;49.774;8.650;2024-02-04T15:03:57;5.97;;;5.57;;
22995;SDS011;11664;49.774;8.650;2024-02-04T15:06:22;4.70;;;4.45;;
22995;SDS011;11664;49.774;8.650;2024-02-04T15:08:48;5.65;;;5.25;;
22995;SDS011;11664;49.774;8.650;2024-02-04T15:11:13;5.80;;;5.03;;
22995;SDS011;11664;49.774;8.650;2024-02-04T15:13:39;4.65;;;4.35;;
22995;SDS011;11664;49.774;8.650;2024-02-04T15:16:05;4.95;;;4.65;;
22995;SDS011;11664;49.774;8.650;2024-02-04T15:18:32;4.40;;;4.07;;
22995;SDS011;11664;49.774;8.650;2024-02-04T15:20:58;8.50;;;8.00;;
22995;SDS011;11664;49.774;8.650;2024-02-04T15:23:24;7.10;;;6.60;;
22995;SDS011;11664;49.774;8.650;2024-02-04T15:25:50;5.93;;;5.43;;
22995;SDS011;11664;49.774;8.650;2024-02-04T15:28:17;5.90;;;5.25;;
22995;SDS011;11664;49.774;8.650;2024-02-04T15:30:44;18.80;;;9.50;;
22995;SDS011;11664;49.774;8.650;2024-02-04T15:33:10;7.22;;;6.53;;
22995;SDS011;11664;49.774;8.650;2024-02-04T15:35:36;6.78;;;6.18;;
22995;SDS011;11664;49.774;8.650;2024-02-04T15:38:02;5.68;;;5.18;;
22995;SDS011;11664;49.774;8.650;2024-02-04T15:40:28;5.35;;;5.00;;